This is the latest recevied weather packets stored in our database for station/object KC9EGS. If no packets are shown the sender has not sent any weather packets the latest 10 day(s).
| Time | Temp. | Humidity | Pressure | Rain* | Wind** | Luminosity | Snow |
|---|---|---|---|---|---|---|---|
| 1777648208 | 2.22° C | 62% | 1014.2 hPa | 0 mm | - | - | - |
| 1777647914 | 2.78° C | 61% | 1014.2 hPa | 0 mm | - | - | - |
| 1777647308 | 2.78° C | 59% | 1013.9 hPa | 0 mm | - | - | - |
| 1777646714 | 2.78° C | 59% | 1013.9 hPa | 0 mm | - | - | - |
| 1777646409 | 2.78° C | 60% | 1013.9 hPa | 0 mm | - | - | - |
| 1777646114 | 2.78° C | 59% | 1013.9 hPa | 0 mm | - | - | - |
| 1777645507 | 2.78° C | 60% | 1014.2 hPa | 0 mm | - | - | - |
| 1777644915 | 2.22° C | 67% | 1014.2 hPa | 0 mm | - | - | - |
| 1777644608 | 2.22° C | 67% | 1014.2 hPa | 0 mm | - | - | - |
| 1777644314 | 2.22° C | 67% | 1014.2 hPa | 0 mm | - | - | - |
| 1777643709 | 2.22° C | 67% | 1014.1 hPa | 0 mm | - | - | - |
| 1777643114 | 2.22° C | 67% | 1014.1 hPa | 0 mm | - | - | - |
| 1777642807 | 2.22° C | 68% | 1014.1 hPa | 0 mm | - | - | - |
| 1777642513 | 1.67° C | 70% | 1014.1 hPa | 0 mm | - | - | - |
| 1777641909 | 1.67° C | 72% | 1014.1 hPa | 0 mm | - | - | - |
| 1777641314 | 1.11° C | 73% | 1014.1 hPa | 0 mm | - | - | - |
| 1777641009 | 1.11° C | 73% | 1014.1 hPa | 0 mm | - | - | - |
| 1777640109 | 0.56° C | 74% | 1014 hPa | 0 mm | - | - | - |
| 1777639512 | 0.56° C | 76% | 1014 hPa | 0 mm | - | - | - |
| 1777639207 | 0.56° C | 76% | 1013.9 hPa | 0 mm | - | - | - |
| 1777638913 | 0.56° C | 76% | 1013.9 hPa | 0 mm | - | - | - |
| 1777638309 | 0° C | 76% | 1013.9 hPa | 0 mm | - | - | - |
| 1777637715 | 0° C | 76% | 1013.9 hPa | 0 mm | - | - | - |
| 1777637409 | 0° C | 76% | 1013.6 hPa | 0 mm | - | - | - |
| 1777637115 | 0° C | 76% | 1013.6 hPa | 0 mm | - | - | - |
* Rain latest hour (hover to see other rain measurements)
** Current wind speed in m/s (hover to see current wind gust speed)